createdAt,value
2023-04-09T00:01:23.012Z,59.63
2023-04-09T00:03:50.993Z,35.27
2023-04-09T00:06:20.233Z,82.20
2023-04-09T00:08:47.923Z,130.43
2023-04-09T00:11:15.697Z,24.33
2023-04-09T00:13:43.390Z,48.80
2023-04-09T00:16:11.225Z,41.47
2023-04-09T00:18:39.025Z,39.50
2023-04-09T00:21:08.517Z,29.27
2023-04-09T00:23:37.643Z,61.03
2023-04-09T00:26:06.018Z,116.67
2023-04-09T00:28:33.823Z,57.00
2023-04-09T00:31:01.689Z,40.00
2023-04-09T00:33:29.409Z,53.03
2023-04-09T00:35:57.149Z,113.53
2023-04-09T00:38:24.919Z,46.50
2023-04-09T00:40:54.009Z,160.03
2023-04-09T00:43:22.219Z,78.73
2023-04-09T00:45:50.083Z,108.77
2023-04-09T00:48:18.733Z,42.90
2023-04-09T00:50:46.430Z,70.77
2023-04-09T00:53:15.420Z,98.77
2023-04-09T00:55:43.392Z,50.17
2023-04-09T00:58:12.904Z,33.07
2023-04-09T01:00:40.894Z,43.67
2023-04-09T01:03:09.538Z,46.77
2023-04-09T01:05:45.101Z,30.80
2023-04-09T01:08:20.390Z,29.93
2023-04-09T01:10:55.253Z,115.37
2023-04-09T01:13:31.572Z,40.93
2023-04-09T01:16:02.489Z,42.67
2023-04-09T01:18:36.544Z,39.00
2023-04-09T01:21:10.928Z,39.93
2023-04-09T01:23:47.826Z,56.03
2023-04-09T01:26:23.661Z,42.43
2023-04-09T01:28:55.665Z,49.93
2023-04-09T01:31:29.533Z,52.30
2023-04-09T01:33:58.687Z,33.70
2023-04-09T01:36:27.976Z,39.87
2023-04-09T01:38:57.255Z,75.17
2023-04-09T01:41:27.239Z,82.20
2023-04-09T01:43:56.879Z,116.57
2023-04-09T01:46:26.105Z,123.33
2023-04-09T01:48:54.966Z,100.43
2023-04-09T01:51:23.042Z,66.87
2023-04-09T01:53:50.935Z,78.17
2023-04-09T01:56:18.675Z,55.63
2023-04-09T01:58:46.362Z,40.80
2023-04-09T02:01:21.633Z,71.57
2023-04-09T02:03:54.763Z,142.10
2023-04-09T02:06:31.092Z,52.30
2023-04-09T02:09:01.262Z,43.27
2023-04-09T02:11:31.243Z,68.37
2023-04-09T02:13:59.387Z,116.43
2023-04-09T02:16:29.538Z,41.13
2023-04-09T02:18:57.700Z,70.30
2023-04-09T02:21:27.052Z,53.50
2023-04-09T02:23:55.634Z,212.77
2023-04-09T02:26:24.032Z,64.60
2023-04-09T02:28:52.149Z,73.90
2023-04-09T02:31:19.985Z,63.30
2023-04-09T02:33:49.049Z,67.87
2023-04-09T02:36:16.787Z,50.30
2023-04-09T02:38:44.498Z,51.23
2023-04-09T02:41:12.299Z,58.03
2023-04-09T02:43:40.002Z,39.03
2023-04-09T02:46:08.426Z,68.23
2023-04-09T02:48:36.203Z,39.03
2023-04-09T02:51:08.235Z,56.50
2023-04-09T02:53:37.631Z,60.23
2023-04-09T02:56:05.930Z,36.83
2023-04-09T02:58:33.700Z,53.17
2023-04-09T03:01:01.521Z,68.17
2023-04-09T03:03:29.378Z,53.53
2023-04-09T03:05:57.150Z,39.20
2023-04-09T03:08:26.272Z,51.23
2023-04-09T03:10:53.945Z,42.80
2023-04-09T03:13:21.693Z,54.27
2023-04-09T03:15:52.763Z,39.70
2023-04-09T03:18:20.801Z,85.83
2023-04-09T03:20:48.472Z,51.47
2023-04-09T03:23:16.374Z,61.90
2023-04-09T03:25:45.521Z,143.77
2023-04-09T03:28:13.246Z,98.43
2023-04-09T03:30:40.925Z,59.00
2023-04-09T03:33:08.662Z,68.20
2023-04-09T03:35:36.376Z,123.50
2023-04-09T03:38:04.109Z,61.00
2023-04-09T03:40:32.735Z,32.87
2023-04-09T03:43:01.833Z,79.90
2023-04-09T03:45:30.736Z,40.73
2023-04-09T03:47:58.449Z,82.53
2023-04-09T03:50:26.255Z,68.70
2023-04-09T03:52:53.993Z,36.13
2023-04-09T03:55:21.928Z,54.40
2023-04-09T03:57:49.981Z,72.77
2023-04-09T04:00:19.234Z,44.27
2023-04-09T04:02:47.106Z,83.57
2023-04-09T04:05:15.142Z,42.73
2023-04-09T04:07:43.883Z,41.10
2023-04-09T04:10:11.920Z,93.67
2023-04-09T04:12:39.608Z,57.70
2023-04-09T04:15:08.448Z,59.20
2023-04-09T04:17:37.806Z,47.33
2023-04-09T04:20:06.235Z,62.17
2023-04-09T04:22:35.282Z,112.37
2023-04-09T04:25:03.668Z,40.43
2023-04-09T04:27:31.418Z,72.67
2023-04-09T04:30:00.231Z,79.50
2023-04-09T04:32:28.223Z,55.70
2023-04-09T04:34:57.294Z,57.77
2023-04-09T04:37:25.167Z,67.17
2023-04-09T04:39:52.870Z,108.00
2023-04-09T04:42:20.547Z,52.63
2023-04-09T04:44:48.228Z,75.27
2023-04-09T04:47:15.923Z,97.33
2023-04-09T04:49:43.642Z,78.33
2023-04-09T04:52:12.716Z,43.10
2023-04-09T04:54:40.469Z,96.63
2023-04-09T04:57:08.236Z,51.30
2023-04-09T04:59:38.565Z,53.83
2023-04-09T05:02:06.406Z,116.87
2023-04-09T05:04:34.283Z,45.57
2023-04-09T05:07:02.277Z,52.20
2023-04-09T05:09:31.295Z,84.50
2023-04-09T05:11:59.059Z,82.33
2023-04-09T05:14:26.830Z,64.67
2023-04-09T05:16:54.661Z,74.60
2023-04-09T05:19:22.408Z,126.70
2023-04-09T05:21:50.247Z,68.67
2023-04-09T05:24:17.924Z,91.20
2023-04-09T05:26:46.988Z,81.67
2023-04-09T05:29:14.894Z,68.63
2023-04-09T05:31:43.237Z,76.07
2023-04-09T05:34:11.250Z,55.20
2023-04-09T05:36:38.978Z,48.67
2023-04-09T05:39:06.674Z,75.43
2023-04-09T05:41:37.159Z,79.20
2023-04-09T05:44:06.733Z,69.50
2023-04-09T05:46:34.433Z,50.40
2023-04-09T05:49:02.258Z,40.30
2023-04-09T05:51:29.954Z,155.83
2023-04-09T05:53:57.684Z,142.80
2023-04-09T05:56:25.770Z,40.13
2023-04-09T05:58:53.490Z,87.10
2023-04-09T06:01:22.613Z,48.40
2023-04-09T06:03:50.654Z,32.43
2023-04-09T06:06:18.677Z,64.27
2023-04-09T06:08:46.410Z,88.87
2023-04-09T06:11:14.585Z,67.57
2023-04-09T06:13:42.350Z,55.67
2023-04-09T06:16:11.462Z,49.43
2023-04-09T06:18:42.408Z,41.73
2023-04-09T06:21:10.658Z,32.70
2023-04-09T06:23:38.418Z,25.47
2023-04-09T06:26:06.421Z,31.20
2023-04-09T06:28:34.078Z,27.23
2023-04-09T06:31:01.836Z,24.20
2023-04-09T06:33:29.640Z,30.87
2023-04-09T06:35:58.789Z,33.17
2023-04-09T06:38:26.608Z,31.20
2023-04-09T06:40:54.291Z,31.23
2023-04-09T06:43:22.014Z,29.70
2023-04-09T06:45:49.728Z,32.20
2023-04-09T06:48:17.475Z,31.23
2023-04-09T06:50:45.344Z,34.50
2023-04-09T06:53:16.349Z,35.33
2023-04-09T06:55:44.211Z,32.33
2023-04-09T06:58:11.910Z,33.70
2023-04-09T07:00:39.753Z,31.90
2023-04-09T07:03:09.203Z,31.30
2023-04-09T07:05:37.220Z,35.37
2023-04-09T07:08:05.250Z,34.47
2023-04-09T07:10:34.386Z,30.87
2023-04-09T07:13:02.529Z,33.17
2023-04-09T07:15:30.739Z,32.77
2023-04-09T07:17:58.689Z,38.17
2023-04-09T07:20:26.534Z,31.03
2023-04-09T07:22:54.199Z,32.93
2023-04-09T07:25:22.309Z,32.57
2023-04-09T07:27:51.483Z,29.70
2023-04-09T07:30:19.400Z,31.00
2023-04-09T07:32:47.212Z,33.67
2023-04-09T07:35:14.918Z,34.97
2023-04-09T07:37:42.788Z,32.00
2023-04-09T07:40:10.847Z,32.50
2023-04-09T07:42:39.034Z,31.77
2023-04-09T07:45:09.367Z,32.63
2023-04-09T07:47:37.157Z,26.50
2023-04-09T07:50:05.357Z,28.37
2023-04-09T07:52:33.768Z,31.07
2023-04-09T07:55:01.428Z,33.87
2023-04-09T07:57:29.197Z,33.53
2023-04-09T07:59:56.955Z,37.17
2023-04-09T08:02:26.858Z,38.03
2023-04-09T08:04:55.915Z,34.27
2023-04-09T08:07:23.652Z,33.07
2023-04-09T08:09:51.383Z,33.60
2023-04-09T08:12:19.103Z,32.37
2023-04-09T08:14:46.838Z,33.43
2023-04-09T08:17:14.510Z,31.70
2023-04-09T08:19:43.561Z,28.30
2023-04-09T08:22:11.311Z,31.80
2023-04-09T08:24:40.154Z,34.47
2023-04-09T08:27:07.974Z,34.10
2023-04-09T08:29:35.800Z,37.63
2023-04-09T08:32:03.521Z,35.93
2023-04-09T08:34:31.495Z,33.43
2023-04-09T08:37:00.550Z,32.57
2023-04-09T08:39:28.425Z,35.60
2023-04-09T08:41:59.893Z,38.30
2023-04-09T08:44:27.747Z,32.77
2023-04-09T08:46:56.560Z,31.17
2023-04-09T08:49:26.024Z,33.30
2023-04-09T08:51:53.753Z,35.53
2023-04-09T08:54:23.465Z,35.27
2023-04-09T08:56:51.241Z,36.97
2023-04-09T08:59:19.540Z,32.40
2023-04-09T09:01:52.613Z,35.03
2023-04-09T09:04:21.854Z,28.40
2023-04-09T09:06:49.670Z,35.40
2023-04-09T09:09:18.821Z,31.63
2023-04-09T09:11:50.331Z,34.33
2023-04-09T09:14:20.459Z,34.37
2023-04-09T09:17:06.742Z,29.77
2023-04-09T09:19:35.768Z,31.40
2023-04-09T09:22:05.242Z,33.50
2023-04-09T09:24:34.019Z,28.93
2023-04-09T09:27:03.586Z,26.67
2023-04-09T09:29:31.791Z,29.97
2023-04-09T09:32:01.469Z,34.27
2023-04-09T09:34:29.202Z,26.20
2023-04-09T09:36:57.238Z,25.83
2023-04-09T09:39:24.957Z,25.67
2023-04-09T09:42:09.590Z,30.43
2023-04-09T09:44:37.331Z,27.50
2023-04-09T09:47:05.629Z,28.30
2023-04-09T09:49:33.353Z,28.30
2023-04-09T09:52:06.010Z,27.30
2023-04-09T09:54:41.618Z,29.87
2023-04-09T09:57:13.538Z,26.40
2023-04-09T09:59:44.435Z,23.87
2023-04-09T10:02:20.620Z,28.53
2023-04-09T10:04:51.119Z,22.57
2023-04-09T10:07:20.902Z,26.73
2023-04-09T10:09:51.359Z,28.50
2023-04-09T10:12:23.772Z,26.60
2023-04-09T10:14:53.098Z,27.07
2023-04-09T10:17:21.712Z,29.07
2023-04-09T10:20:00.643Z,26.93
2023-04-09T10:22:33.000Z,27.27
2023-04-09T10:25:00.892Z,24.90
2023-04-09T10:27:30.116Z,27.13
2023-04-09T10:29:57.790Z,32.30
2023-04-09T10:32:27.997Z,27.80
2023-04-09T10:34:59.325Z,30.63
2023-04-09T10:37:28.529Z,24.77
2023-04-09T10:39:57.876Z,29.70
2023-04-09T10:42:31.753Z,30.40
2023-04-09T10:45:09.841Z,29.00
2023-04-09T10:47:39.510Z,29.83
2023-04-09T10:50:24.036Z,28.17
2023-04-09T10:52:54.342Z,35.47
2023-04-09T10:55:34.014Z,33.40
2023-04-09T10:58:01.701Z,32.80
2023-04-09T11:00:30.925Z,34.00
2023-04-09T11:03:21.357Z,30.37
2023-04-09T11:05:53.238Z,35.23
2023-04-09T11:08:22.020Z,35.10
2023-04-09T11:10:51.980Z,34.97
2023-04-09T11:13:21.863Z,40.20
2023-04-09T11:15:51.529Z,33.37
2023-04-09T11:18:23.487Z,37.70
2023-04-09T11:20:51.363Z,33.00
2023-04-09T11:23:19.687Z,34.77
2023-04-09T11:25:50.438Z,37.97
2023-04-09T11:28:18.746Z,34.20
2023-04-09T11:30:47.767Z,35.87
2023-04-09T11:33:19.098Z,31.33
2023-04-09T11:35:47.598Z,33.20
2023-04-09T11:38:15.585Z,28.77
2023-04-09T11:40:48.251Z,32.40
2023-04-09T11:43:17.786Z,29.70
2023-04-09T11:45:48.072Z,34.03
2023-04-09T11:48:19.112Z,31.40
2023-04-09T11:50:48.156Z,30.07
2023-04-09T11:53:23.015Z,33.07
2023-04-09T11:55:52.376Z,30.80
2023-04-09T11:58:23.505Z,22.27
2023-04-09T12:00:54.379Z,32.10
2023-04-09T12:03:29.372Z,33.43
2023-04-09T12:05:57.451Z,30.73
2023-04-09T12:08:25.862Z,32.13
2023-04-09T12:10:54.170Z,26.83
2023-04-09T12:13:22.178Z,30.70
2023-04-09T12:15:51.393Z,31.10
2023-04-09T12:18:19.078Z,29.73
2023-04-09T12:20:49.671Z,28.00
2023-04-09T12:23:17.848Z,33.20
2023-04-09T12:25:47.583Z,34.47
2023-04-09T12:28:18.496Z,36.03
2023-04-09T12:30:46.912Z,34.70
2023-04-09T12:33:14.666Z,35.60
2023-04-09T12:35:42.420Z,36.47
2023-04-09T12:38:11.504Z,33.97
2023-04-09T12:40:40.182Z,33.33
2023-04-09T12:43:07.872Z,31.20
2023-04-09T12:45:35.790Z,34.27
2023-04-09T12:48:03.651Z,36.53
2023-04-09T12:50:31.382Z,37.53
2023-04-09T12:52:59.037Z,36.57
2023-04-09T12:55:28.312Z,33.77
2023-04-09T12:57:56.076Z,33.03
2023-04-09T13:00:23.949Z,31.37
2023-04-09T13:02:52.788Z,34.17
2023-04-09T13:05:20.906Z,31.20
2023-04-09T13:07:48.556Z,31.40
2023-04-09T13:10:16.344Z,30.83
2023-04-09T13:12:45.431Z,31.77
2023-04-09T13:15:13.100Z,31.67
2023-04-09T13:17:40.858Z,29.17
2023-04-09T13:20:09.909Z,32.00
2023-04-09T13:22:37.627Z,29.60
2023-04-09T13:25:05.812Z,27.77
2023-04-09T13:27:33.901Z,30.20
2023-04-09T13:30:03.363Z,29.10
2023-04-09T13:32:31.818Z,30.30
2023-04-09T13:34:59.550Z,26.83
2023-04-09T13:37:27.280Z,25.23
2023-04-09T13:39:55.400Z,31.33
2023-04-09T13:42:23.064Z,26.33
2023-04-09T13:44:51.288Z,27.27
2023-04-09T13:47:21.065Z,32.13
2023-04-09T13:49:48.811Z,25.40
2023-04-09T13:52:16.779Z,28.00
2023-04-09T13:54:44.511Z,19.53
2023-04-09T13:57:12.324Z,22.27
2023-04-09T13:59:41.651Z,22.03
2023-04-09T14:02:10.317Z,21.83
2023-04-09T14:04:39.697Z,22.00
2023-04-09T14:07:08.382Z,21.67
2023-04-09T14:09:36.438Z,19.40
2023-04-09T14:12:04.477Z,21.07
2023-04-09T14:14:32.424Z,22.70
2023-04-09T14:17:00.144Z,20.23
2023-04-09T14:19:27.926Z,20.33
2023-04-09T14:21:57.060Z,21.03
2023-04-09T14:24:24.969Z,21.17
2023-04-09T14:26:53.581Z,20.60
2023-04-09T14:29:22.132Z,19.90
2023-04-09T14:31:50.039Z,18.43
2023-04-09T14:34:17.858Z,20.40
2023-04-09T14:36:45.594Z,20.37
2023-04-09T14:39:14.728Z,20.87
2023-04-09T14:41:42.556Z,19.67
2023-04-09T14:44:10.319Z,20.23
2023-04-09T14:46:38.181Z,19.13
2023-04-09T14:49:05.881Z,17.13
2023-04-09T14:51:34.172Z,17.67
2023-04-09T14:54:02.604Z,17.13
2023-04-09T14:56:31.707Z,17.43
2023-04-09T14:58:59.961Z,17.17
2023-04-09T15:01:28.173Z,19.77
2023-04-09T15:03:56.457Z,19.57
2023-04-09T15:06:24.319Z,19.17
2023-04-09T15:08:52.360Z,17.07
2023-04-09T15:11:22.789Z,18.97
2023-04-09T15:13:52.775Z,17.40
2023-04-09T15:16:24.578Z,18.67
2023-04-09T15:18:52.964Z,18.93
2023-04-09T15:21:21.506Z,17.10
2023-04-09T15:23:51.772Z,16.70
2023-04-09T15:26:19.787Z,18.77
2023-04-09T15:28:47.622Z,19.87
2023-04-09T15:31:16.765Z,17.93
2023-04-09T15:33:44.769Z,17.33
2023-04-09T15:36:12.701Z,16.90
2023-04-09T15:38:40.638Z,15.23
2023-04-09T15:41:08.435Z,16.53
2023-04-09T15:43:36.190Z,16.27
2023-04-09T15:46:09.310Z,18.23
2023-04-09T15:48:38.856Z,15.70
2023-04-09T15:51:07.144Z,19.57
2023-04-09T15:53:35.299Z,18.30
2023-04-09T15:56:04.151Z,18.63
2023-04-09T15:58:32.104Z,17.40
2023-04-09T16:01:00.837Z,18.43
2023-04-09T16:03:28.518Z,16.40
2023-04-09T16:05:57.771Z,16.77
2023-04-09T16:08:26.701Z,17.17
2023-04-09T16:10:54.405Z,17.57
2023-04-09T16:13:22.157Z,15.33
2023-04-09T16:15:51.053Z,15.30
2023-04-09T16:18:18.855Z,17.03
2023-04-09T16:20:46.655Z,15.07
2023-04-09T16:23:15.811Z,17.40
2023-04-09T16:25:43.481Z,19.37
2023-04-09T16:28:11.221Z,17.17
2023-04-09T16:30:39.864Z,16.83
2023-04-09T16:33:08.618Z,17.50
2023-04-09T16:35:38.650Z,17.63
2023-04-09T16:38:07.652Z,15.97
2023-04-09T16:40:36.672Z,17.53
2023-04-09T16:43:05.337Z,16.17
2023-04-09T16:45:33.165Z,14.43
2023-04-09T16:48:01.477Z,16.50
2023-04-09T16:50:29.776Z,15.80
2023-04-09T16:52:57.483Z,15.70
2023-04-09T16:55:25.797Z,18.37
2023-04-09T16:57:56.305Z,17.30
2023-04-09T17:00:24.828Z,16.47
2023-04-09T17:02:52.698Z,16.43
2023-04-09T17:05:20.469Z,16.63
2023-04-09T17:07:48.243Z,17.47
2023-04-09T17:10:16.126Z,18.70
2023-04-09T17:12:43.810Z,15.07
2023-04-09T17:15:13.227Z,17.13
2023-04-09T17:17:41.081Z,16.20
2023-04-09T17:20:09.642Z,17.23
2023-04-09T17:22:38.145Z,14.23
2023-04-09T17:25:06.357Z,15.93
2023-04-09T17:27:34.067Z,15.77
2023-04-09T17:30:01.884Z,13.63
2023-04-09T17:32:31.435Z,18.70
2023-04-09T17:34:59.827Z,15.93
2023-04-09T17:37:28.810Z,17.53
2023-04-09T17:39:56.520Z,17.50
2023-04-09T17:42:26.829Z,16.33
2023-04-09T17:44:54.538Z,15.70
2023-04-09T17:47:22.320Z,14.87
2023-04-09T17:49:51.880Z,14.00
2023-04-09T17:52:20.458Z,16.83
2023-04-09T17:54:50.486Z,15.43
2023-04-09T17:57:18.480Z,16.70
2023-04-09T17:59:46.270Z,15.03
2023-04-09T18:02:14.077Z,13.93
2023-04-09T18:04:42.133Z,16.27
2023-04-09T18:07:11.511Z,15.37
2023-04-09T18:09:40.638Z,14.80
2023-04-09T18:12:08.419Z,16.73
2023-04-09T18:14:36.319Z,16.57
2023-04-09T18:17:04.105Z,16.37
2023-04-09T18:19:32.072Z,14.87
2023-04-09T18:21:59.829Z,16.73
2023-04-09T18:24:29.279Z,17.10
2023-04-09T18:26:57.357Z,16.23
2023-04-09T18:29:27.394Z,16.20
2023-04-09T18:31:55.740Z,15.37
2023-04-09T18:34:23.943Z,17.10
2023-04-09T18:36:51.756Z,18.23
2023-04-09T18:39:20.627Z,16.77
2023-04-09T18:41:49.779Z,16.87
2023-04-09T18:44:17.561Z,16.67
2023-04-09T18:46:45.402Z,18.73
2023-04-09T18:49:13.179Z,16.87
2023-04-09T18:51:41.077Z,16.50
2023-04-09T18:54:08.903Z,18.73
2023-04-09T18:56:36.626Z,17.20
2023-04-09T18:59:05.795Z,19.20
2023-04-09T19:01:33.507Z,18.17
2023-04-09T19:04:01.530Z,17.47
2023-04-09T19:06:29.910Z,17.60
2023-04-09T19:08:58.974Z,17.90
2023-04-09T19:11:26.983Z,15.90
2023-04-09T19:13:54.761Z,16.20
2023-04-09T19:16:23.917Z,15.13
2023-04-09T19:18:51.832Z,13.43
2023-04-09T19:21:19.685Z,14.23
2023-04-09T19:23:47.643Z,14.43
2023-04-09T19:26:15.325Z,15.27
2023-04-09T19:28:43.026Z,16.53
2023-04-09T19:31:12.613Z,17.27
2023-04-09T19:33:41.794Z,15.33
2023-04-09T19:36:09.488Z,15.83
2023-04-09T19:38:37.205Z,16.20
2023-04-09T19:41:05.290Z,15.60
2023-04-09T19:43:33.082Z,16.90
2023-04-09T19:46:05.018Z,17.13
2023-04-09T19:48:32.871Z,15.70
2023-04-09T19:51:02.907Z,16.37
2023-04-09T19:53:31.003Z,18.07
2023-04-09T19:55:58.704Z,20.10
2023-04-09T19:58:27.262Z,17.40
2023-04-09T20:00:55.128Z,19.37
2023-04-09T20:03:23.019Z,19.57
2023-04-09T20:05:50.911Z,16.20
2023-04-09T20:08:20.207Z,17.37
2023-04-09T20:10:48.855Z,19.10
2023-04-09T20:13:16.624Z,19.40
2023-04-09T20:15:44.329Z,20.63
2023-04-09T20:18:12.234Z,20.20
2023-04-09T20:20:40.101Z,20.43
2023-04-09T20:23:07.853Z,20.77
2023-04-09T20:25:37.016Z,18.97
2023-04-09T20:28:04.996Z,18.53
2023-04-09T20:30:32.959Z,20.60
2023-04-09T20:33:01.379Z,19.50
2023-04-09T20:35:29.231Z,22.83
2023-04-09T20:37:56.993Z,22.33
2023-04-09T20:40:25.055Z,21.30
2023-04-09T20:42:54.110Z,21.50
2023-04-09T20:45:21.799Z,20.03
2023-04-09T20:47:50.761Z,20.57
2023-04-09T20:50:19.678Z,18.07
2023-04-09T20:52:47.500Z,18.27
2023-04-09T20:55:15.676Z,21.20
2023-04-09T20:57:43.906Z,20.40
2023-04-09T21:00:14.614Z,18.43
2023-04-09T21:02:42.410Z,17.10
2023-04-09T21:05:21.937Z,18.07
2023-04-09T21:07:51.132Z,20.70
2023-04-09T21:10:19.013Z,18.33
2023-04-09T21:12:46.754Z,22.73
2023-04-09T21:15:16.041Z,19.40
2023-04-09T21:17:43.784Z,22.67
2023-04-09T21:20:12.181Z,22.53
2023-04-09T21:22:39.879Z,21.50
2023-04-09T21:25:08.270Z,20.37
2023-04-09T21:27:35.953Z,23.07
2023-04-09T21:30:03.861Z,20.87
2023-04-09T21:32:32.939Z,21.67
2023-04-09T21:35:00.802Z,21.83
2023-04-09T21:37:28.988Z,21.20
2023-04-09T21:39:56.733Z,22.27
2023-04-09T21:42:25.127Z,25.60
2023-04-09T21:44:52.803Z,23.63
2023-04-09T21:47:20.829Z,22.77
2023-04-09T21:49:50.258Z,27.40
2023-04-09T21:52:18.006Z,28.70
2023-04-09T21:54:45.697Z,29.13
2023-04-09T21:57:13.395Z,30.03
2023-04-09T21:59:41.320Z,30.33
2023-04-09T22:02:10.016Z,30.77
2023-04-09T22:04:37.937Z,33.40
2023-04-09T22:07:07.089Z,34.20
2023-04-09T22:09:35.980Z,33.50
2023-04-09T22:12:04.162Z,35.00
2023-04-09T22:14:33.697Z,37.13
2023-04-09T22:17:02.100Z,35.40
2023-04-09T22:19:31.438Z,36.70
2023-04-09T22:21:59.550Z,35.13
2023-04-09T22:24:30.096Z,32.07
2023-04-09T22:26:58.863Z,34.37
2023-04-09T22:29:27.893Z,33.93
2023-04-09T22:31:55.899Z,38.37
2023-04-09T22:34:23.642Z,33.23
2023-04-09T22:36:51.578Z,36.63
2023-04-09T22:39:19.291Z,35.83
2023-04-09T22:41:48.456Z,35.37
2023-04-09T22:44:16.226Z,37.37
2023-04-09T22:46:44.023Z,36.70
2023-04-09T22:49:12.340Z,35.47
2023-04-09T22:51:41.637Z,37.20
2023-04-09T22:54:09.627Z,40.50
2023-04-09T22:56:37.666Z,41.80
2023-04-09T22:59:07.119Z,46.37
2023-04-09T23:01:34.995Z,44.60
2023-04-09T23:04:02.788Z,42.10
2023-04-09T23:06:31.092Z,43.07
2023-04-09T23:08:59.856Z,41.63
2023-04-09T23:11:28.235Z,43.53
2023-04-09T23:13:55.943Z,42.53
2023-04-09T23:16:25.102Z,44.97
2023-04-09T23:18:53.057Z,44.17
2023-04-09T23:21:21.072Z,45.63
2023-04-09T23:23:49.009Z,44.30
2023-04-09T23:26:16.703Z,44.40
2023-04-09T23:28:44.487Z,43.30
2023-04-09T23:31:12.376Z,43.37
2023-04-09T23:33:41.574Z,48.07
2023-04-09T23:36:09.867Z,40.83
2023-04-09T23:38:40.084Z,44.87
2023-04-09T23:41:08.019Z,43.87
2023-04-09T23:43:35.808Z,50.27
2023-04-09T23:46:03.555Z,49.13
2023-04-09T23:48:31.325Z,45.80
2023-04-09T23:51:00.493Z,44.03
2023-04-09T23:53:28.180Z,45.50
2023-04-09T23:55:55.895Z,45.10
2023-04-09T23:58:23.616Z,43.03
